EGXW/WTN METAR and TAF weather

Enter ICAO airport designator
Station Type Date Time Source
EGXW METAR 2020/07/15 07:50 UTC NOAA

EGXW 150750Z 25008KT 9999 -RA FEW010 OVC045 14/12 Q1014 TEMPO SCT010 RMK BLU TEMPO GRN


Station Type Date Time Source
EGXW Decoded METAR 2020/07/15 07:50 UTC NOAA

Waddington, United Kingdom (EGXW) 53-10N 000-31W 0M
Jul 15, 2020 - 03:50 AM EDT / 2020.07.15 0750 UTC
Wind: from the WSW (250 degrees) at 9 MPH (8 KT):0
Visibility: greater than 7 mile(s):0
Sky conditions: overcast
Weather: light rain
Temperature: 57 F (14 C)
Dew Point: 53 F (12 C)
Relative Humidity: 87%
Pressure (altimeter): 29.94 in. Hg (1014 hPa)
ob: EGXW 150750Z 25008KT 9999 -RA FEW010 OVC045 14/12 Q1014 TEMPO SCT010 RMK BLU TEMPO GRN
cycle: 8

Station Type Date Time Source
EGXW TAF 2020/07/15 09:03 UTC NOAA

TAF TAF EGXW 150756Z 1509/1603 23007KT 9999 BKN040
TEMPO 1509/1514 BKN010 PROB30
TEMPO 1509/1514 4000 RADZ
TEMPO 1514/1603 BKN016 PROB30
TEMPO 1514/1520 6000 -RADZ BKN012

Example: see airport list